Main page
METAR-TAF:

METAR-TAF

Airports :

Tripoli, Libya

Mitiga International Airport

latitude: 32-54N, longitude: 13-17E, elevation: 11 m

Current weather observation

The report was made 1 hour and 30 minutes ago, at 05:50 UTC
Wind 3 kt from the East/Southeast
Temperature 23°C
Humidity 83%
Pressure 1018 hPa
Visibility: 6000 m
Scattered clouds at a height of 2000 ft

METAR: HLLM 260550Z 12003KT 6000 SCT020 23/20 Q1018

Time: 09:20 (07:20 UTC)

Forecast

The report was made 8 hours and 20 minutes ago, at 23:00 UTC
Forecast valid from 26 at 00 UTC to 26 at 24 UTC
Wind 2 kt from variable directions
Visibility: 8000 m
Becoming
from 26 at 06 UTC to 26 at 08 UTC
Wind 10 kt from the East/Northeast

TAF: HLLM 252300Z 2600/2624 VRB02KT 8000 NSC BECMG 2606/2608 06010KT

Weather observations and forecasts of more than 4000 airports (METAR and TAF reports).

The available stations are represented by yellow and red dots on the map.

Hover mouse over dot to see the name of the station.

Then click to see weather observations and forecasts.

To change the map : click on the green buttons with a black cross to zoom in, on the green button with a dash to zoom out, or on the green arrows for adjacent maps.


METAR-TAF: